createdAt,value
2023-02-28T01:05:46.509Z,33.83
2023-02-28T01:06:46.358Z,33.82
2023-02-28T01:07:46.217Z,33.83
2023-02-28T01:08:46.064Z,33.82
2023-02-28T01:35:42.252Z,33.92
2023-02-28T01:36:42.087Z,33.96
2023-02-28T01:37:41.946Z,33.95
2023-02-28T01:38:41.819Z,33.95
2023-02-28T01:39:41.669Z,33.92
2023-02-28T01:40:41.602Z,33.96
2023-02-28T01:41:41.399Z,33.97
2023-02-28T01:42:41.259Z,33.94
2023-02-28T01:43:41.120Z,33.95
2023-02-28T01:44:40.981Z,33.97
2023-02-28T01:45:40.918Z,33.99
2023-02-28T01:46:40.740Z,33.96
2023-02-28T01:47:40.569Z,33.99
2023-02-28T01:48:40.439Z,33.95
2023-02-28T01:49:40.295Z,33.95
2023-02-28T01:50:40.159Z,33.94
2023-02-28T01:51:40.024Z,33.94
2023-02-28T01:52:39.889Z,33.96
2023-02-28T01:53:39.747Z,33.98
2023-02-28T01:54:39.614Z,33.96
2023-02-28T01:55:39.473Z,33.96
2023-02-28T01:56:39.332Z,33.96
2023-02-28T01:57:39.172Z,33.96
2023-02-28T01:58:39.038Z,33.92
2023-02-28T01:59:38.894Z,33.90
2023-02-28T02:00:38.757Z,33.92
2023-02-28T02:01:38.646Z,33.94
2023-02-28T02:02:38.509Z,33.95
2023-02-28T02:03:38.336Z,33.96
2023-02-28T02:04:38.202Z,33.97
2023-02-28T02:05:38.116Z,33.94
2023-02-28T02:06:37.928Z,33.95
2023-02-28T02:07:37.798Z,33.95
2023-02-28T02:08:37.670Z,33.92
2023-02-28T02:09:37.516Z,33.94
2023-02-28T02:10:37.365Z,33.94
2023-02-28T02:11:37.230Z,33.95
2023-02-28T02:12:37.083Z,33.95
2023-02-28T02:13:36.939Z,33.95
2023-02-28T02:14:36.799Z,33.94
2023-02-28T02:15:36.676Z,33.93
2023-02-28T02:16:36.525Z,33.92
2023-02-28T02:17:36.376Z,33.89
2023-02-28T02:18:36.237Z,33.89
2023-02-28T02:19:36.104Z,33.90
2023-02-28T02:20:36.048Z,33.92
2023-02-28T02:40:33.391Z,34.46
2023-02-28T02:41:33.297Z,34.49
2023-02-28T02:42:33.187Z,34.53
2023-02-28T02:43:33.062Z,34.54
2023-02-28T02:44:32.955Z,34.53
2023-02-28T02:45:32.850Z,34.51
2023-02-28T02:46:32.778Z,34.50
2023-02-28T02:47:32.681Z,34.53
2023-02-28T02:48:32.536Z,34.49
2023-02-28T02:49:32.425Z,34.49
2023-02-28T02:50:32.327Z,34.50
2023-02-28T02:51:32.350Z,34.50
2023-02-28T02:52:32.139Z,34.49
2023-02-28T02:53:32.041Z,34.51
2023-02-28T02:54:31.944Z,34.51
2023-02-28T03:35:28.230Z,34.86
2023-02-28T03:36:28.089Z,34.84
2023-02-28T03:37:28.039Z,34.86
2023-02-28T03:38:27.888Z,34.88
2023-02-28T03:39:27.802Z,34.93
2023-02-28T03:40:27.725Z,34.93
2023-02-28T03:41:28.054Z,34.93
2023-02-28T03:42:27.526Z,34.91
2023-02-28T03:43:27.441Z,34.94
2023-02-28T03:44:27.363Z,34.92
2023-02-28T03:45:27.256Z,34.95
2023-02-28T03:46:27.165Z,34.95
2023-02-28T03:47:27.070Z,34.96
2023-02-28T03:48:26.977Z,34.99
2023-02-28T03:49:26.905Z,34.97
2023-02-28T03:50:26.811Z,34.96
2023-02-28T03:51:26.976Z,35.00
2023-02-28T03:52:26.715Z,35.01
2023-02-28T03:53:26.899Z,35.06
2023-02-28T03:54:26.514Z,35.02
2023-02-28T03:55:26.381Z,35.03
2023-02-28T03:56:26.309Z,35.02
2023-02-28T03:57:26.202Z,35.03
2023-02-28T03:58:26.145Z,35.04
2023-02-28T03:59:26.017Z,35.02
2023-02-28T04:09:25.183Z,35.09
2023-02-28T04:10:25.107Z,35.07
2023-02-28T04:11:25.007Z,35.11
2023-02-28T04:12:24.930Z,35.13
2023-02-28T04:13:24.861Z,35.16
2023-02-28T04:14:24.787Z,35.16
2023-02-28T04:15:24.709Z,35.13
2023-02-28T04:16:34.476Z,35.16
2023-02-28T04:17:25.491Z,35.18
2023-02-28T04:18:24.431Z,35.19
2023-02-28T04:19:24.232Z,35.20
2023-02-28T04:20:24.089Z,35.19
2023-02-28T04:21:25.551Z,35.18
2023-02-28T04:22:23.826Z,35.20
2023-02-28T04:23:23.691Z,35.21
2023-02-28T04:24:23.548Z,35.20
2023-02-28T04:25:23.407Z,35.20
2023-02-28T04:27:23.139Z,35.21
2023-02-28T04:28:23.010Z,35.24
2023-02-28T04:29:22.881Z,35.23
2023-02-28T04:30:22.807Z,35.22
2023-02-28T04:31:22.626Z,35.23
2023-02-28T04:32:22.522Z,35.25
2023-02-28T04:33:22.340Z,35.26
2023-02-28T04:34:22.217Z,35.25
2023-02-28T04:35:22.067Z,35.29
2023-02-28T04:36:21.938Z,35.32
2023-02-28T04:37:21.808Z,35.29
2023-02-28T04:38:21.674Z,35.27
2023-02-28T04:39:21.542Z,35.27
2023-02-28T04:40:21.397Z,35.25
2023-02-28T04:41:21.354Z,35.25
2023-02-28T04:42:21.135Z,35.24
2023-02-28T04:43:21.049Z,35.23
2023-02-28T04:44:20.861Z,35.23
2023-02-28T04:45:20.728Z,35.22
2023-02-28T04:46:20.622Z,35.23
2023-02-28T04:47:20.476Z,35.22
2023-02-28T04:48:22.318Z,35.24
2023-02-28T04:49:20.188Z,35.25
2023-02-28T04:50:20.051Z,35.25
2023-02-28T04:51:19.919Z,35.26
2023-02-28T04:52:19.778Z,35.26
2023-02-28T04:53:19.641Z,35.30
2023-02-28T04:54:19.503Z,35.25
2023-02-28T04:55:19.890Z,35.26
2023-02-28T04:56:19.338Z,35.28
2023-02-28T04:57:19.178Z,35.27
2023-02-28T04:58:19.095Z,35.23
2023-02-28T04:59:19.012Z,35.22
2023-02-28T05:00:18.929Z,35.24
2023-02-28T05:01:18.845Z,35.25
2023-02-28T05:02:18.811Z,35.26
2023-02-28T05:03:18.680Z,35.30
2023-02-28T05:04:18.637Z,35.26
2023-02-28T05:05:18.515Z,35.26
2023-02-28T05:06:18.443Z,35.26
2023-02-28T05:07:18.352Z,35.26
2023-02-28T05:08:18.262Z,35.26
2023-02-28T05:09:18.182Z,35.27
2023-02-28T05:10:18.089Z,35.25
2023-02-28T05:11:18.000Z,35.25
2023-02-28T05:12:17.922Z,35.24
2023-02-28T05:13:18.380Z,35.22
2023-02-28T05:14:17.741Z,35.22
2023-02-28T05:15:17.655Z,35.27
2023-02-28T05:16:17.663Z,35.26
2023-02-28T05:17:17.479Z,35.27
2023-02-28T05:18:17.401Z,35.32
2023-02-28T05:19:17.410Z,35.31
2023-02-28T05:20:17.242Z,35.36
2023-02-28T05:21:17.148Z,35.36
2023-02-28T05:22:17.081Z,35.38
2023-02-28T05:23:16.995Z,35.37
2023-02-28T05:24:16.911Z,35.36
2023-02-28T05:25:16.892Z,35.37
2023-02-28T05:26:16.749Z,35.39
2023-02-28T05:27:16.679Z,35.41
2023-02-28T05:28:16.601Z,35.41
2023-02-28T05:29:16.520Z,35.41
2023-02-28T05:30:16.898Z,35.46
2023-02-28T05:31:16.413Z,35.45
2023-02-28T05:32:16.316Z,35.45
2023-02-28T05:33:16.188Z,35.45
2023-02-28T05:34:16.104Z,35.41
2023-02-28T05:35:16.043Z,35.40
2023-02-28T05:36:15.941Z,35.42
2023-02-28T05:37:15.879Z,35.45
2023-02-28T05:38:15.793Z,35.44
2023-02-28T05:39:15.719Z,35.42
2023-02-28T05:40:15.637Z,35.43
2023-02-28T05:41:15.568Z,35.45
2023-02-28T05:42:15.484Z,35.46
2023-02-28T05:43:15.472Z,35.45
2023-02-28T05:44:15.361Z,35.47
2023-02-28T05:45:15.902Z,35.42
2023-02-28T05:46:15.186Z,35.42
2023-02-28T05:47:15.096Z,35.38
2023-02-28T05:48:15.029Z,35.42
2023-02-28T05:49:14.961Z,35.42
2023-02-28T05:50:14.899Z,35.41
2023-02-28T05:51:14.819Z,35.39
2023-02-28T05:52:14.815Z,35.42
2023-02-28T05:53:14.719Z,35.44
2023-02-28T05:54:14.610Z,35.40
2023-02-28T05:55:14.506Z,35.42
2023-02-28T05:56:14.434Z,35.46
2023-02-28T05:57:23.949Z,35.43
2023-02-28T05:58:15.222Z,35.43
2023-02-28T05:59:14.124Z,35.45
2023-02-28T06:00:13.950Z,35.43
2023-02-28T06:01:13.867Z,35.44
2023-02-28T06:02:13.759Z,35.49
2023-02-28T06:03:13.584Z,35.49
2023-02-28T06:04:29.296Z,35.49
2023-02-28T06:05:14.272Z,35.52
2023-02-28T07:23:05.459Z,37.87
2023-02-28T07:25:05.838Z,37.61
2023-02-28T07:26:05.097Z,37.56
2023-02-28T07:27:04.990Z,37.58
2023-02-28T07:28:04.881Z,37.60
2023-02-28T07:29:05.480Z,37.63
2023-02-28T07:30:04.641Z,37.66
2023-02-28T07:31:04.558Z,37.67
2023-02-28T07:32:04.418Z,37.68
2023-02-28T07:33:04.296Z,37.70
2023-02-28T07:34:04.191Z,37.69
2023-02-28T07:35:04.187Z,37.72
2023-02-28T07:36:03.969Z,37.72
2023-02-28T07:37:03.867Z,37.76
2023-02-28T07:38:03.733Z,37.78
2023-02-28T07:39:03.627Z,37.80
2023-02-28T07:40:03.548Z,37.84
2023-02-28T07:41:03.399Z,37.85
2023-02-28T07:42:03.305Z,37.88
2023-02-28T07:43:03.174Z,37.90
2023-02-28T07:44:03.081Z,37.94
2023-02-28T07:45:02.961Z,37.95
2023-02-28T07:46:02.841Z,37.95
2023-02-28T07:49:02.518Z,38.00
2023-02-28T07:50:02.414Z,38.02
2023-02-28T07:51:02.311Z,38.02
2023-02-28T07:52:02.201Z,38.01
2023-02-28T07:53:02.100Z,38.02
2023-02-28T09:21:54.498Z,31.80
2023-02-28T09:27:03.807Z,33.18
2023-02-28T09:28:53.867Z,33.74
2023-02-28T09:29:53.780Z,33.43
2023-02-28T09:30:53.685Z,33.43
2023-02-28T09:31:53.678Z,33.51
2023-02-28T09:32:53.351Z,33.68
2023-02-28T09:37:53.452Z,34.65
2023-02-28T10:06:49.171Z,39.58
2023-02-28T10:18:48.028Z,41.49
2023-02-28T10:23:47.533Z,38.38
2023-02-28T10:31:46.857Z,35.42
2023-02-28T10:32:46.612Z,35.69
2023-02-28T10:33:46.516Z,36.48
2023-02-28T10:34:46.405Z,34.59
2023-02-28T10:35:46.321Z,33.59
2023-02-28T10:36:46.181Z,31.81
2023-02-28T10:37:46.060Z,34.86
2023-02-28T10:38:45.943Z,31.68
2023-02-28T10:39:45.830Z,32.66
2023-02-28T10:40:45.734Z,29.35
2023-02-28T10:41:45.975Z,29.28
2023-02-28T10:42:45.585Z,33.09
2023-02-28T10:43:45.506Z,33.78
2023-02-28T10:44:45.384Z,33.55
2023-02-28T10:45:45.327Z,33.15
2023-02-28T10:46:45.285Z,32.97
2023-02-28T10:47:45.151Z,32.94
2023-02-28T10:48:45.058Z,32.89
2023-02-28T10:49:44.961Z,32.98
2023-02-28T10:50:44.831Z,33.12
2023-02-28T10:51:44.727Z,33.28
2023-02-28T10:52:44.614Z,33.41
2023-02-28T10:53:59.575Z,33.56
2023-02-28T10:54:45.435Z,33.74
2023-02-28T10:55:44.209Z,33.94
2023-02-28T10:56:44.103Z,34.12
2023-02-28T10:57:43.930Z,34.29
2023-02-28T10:58:43.784Z,34.53
2023-02-28T10:59:43.627Z,34.77
2023-02-28T11:00:43.494Z,34.99
2023-02-28T11:01:43.349Z,35.15
2023-02-28T11:04:44.578Z,35.87
2023-02-28T11:45:37.547Z,38.43
2023-02-28T11:46:37.436Z,38.42
2023-02-28T11:47:37.296Z,38.41
2023-02-28T11:48:37.119Z,38.44
2023-02-28T11:49:37.019Z,38.44
2023-02-28T11:50:36.833Z,38.43
2023-02-28T11:51:36.685Z,38.45
2023-02-28T11:52:36.545Z,38.48
2023-02-28T11:53:36.418Z,38.47
2023-02-28T11:54:36.264Z,38.46
2023-02-28T11:55:36.128Z,38.47
2023-02-28T11:56:36.043Z,38.43
2023-02-28T11:57:35.854Z,38.46
2023-02-28T11:58:35.713Z,38.46
2023-02-28T11:59:35.556Z,38.44
2023-02-28T12:00:35.403Z,38.41
2023-02-28T12:01:35.280Z,38.44
2023-02-28T12:02:35.162Z,38.40
2023-02-28T12:03:35.001Z,38.41
2023-02-28T12:04:34.850Z,38.39
2023-02-28T12:05:34.775Z,38.40
2023-02-28T12:06:34.553Z,38.39
2023-02-28T12:07:34.403Z,38.40
2023-02-28T12:08:34.247Z,38.42
2023-02-28T12:09:34.155Z,38.43
2023-02-28T12:10:33.953Z,38.43
2023-02-28T12:11:33.820Z,38.42
2023-02-28T12:13:33.533Z,38.43
2023-02-28T12:14:33.365Z,38.39
2023-02-28T13:02:26.949Z,38.58
2023-02-28T13:07:26.292Z,38.52
2023-02-28T13:08:26.200Z,38.47
2023-02-28T13:10:25.911Z,38.52
2023-02-28T13:11:25.800Z,38.50
2023-02-28T13:12:25.666Z,38.49
2023-02-28T13:13:25.543Z,38.47
2023-02-28T13:14:25.425Z,38.47
2023-02-28T13:15:25.348Z,38.48
2023-02-28T13:16:25.208Z,38.49
2023-02-28T13:17:25.076Z,38.44
2023-02-28T13:18:24.969Z,38.50
2023-02-28T13:19:24.843Z,38.47
2023-02-28T13:20:24.732Z,38.51
2023-02-28T13:21:24.613Z,38.49
2023-02-28T13:22:24.479Z,38.48
2023-02-28T13:23:24.376Z,38.44
2023-02-28T13:24:24.310Z,38.43
2023-02-28T13:25:24.232Z,38.46
2023-02-28T13:26:24.018Z,38.42
2023-02-28T13:27:23.903Z,38.43
2023-02-28T13:28:23.800Z,38.41
2023-02-28T13:29:23.696Z,38.39
2023-02-28T13:30:23.600Z,38.36
2023-02-28T13:31:23.463Z,38.37
2023-02-28T13:32:23.405Z,38.36
2023-02-28T13:38:23.504Z,38.27
2023-02-28T14:19:17.378Z,37.76
2023-02-28T14:20:17.245Z,37.80
2023-02-28T14:21:17.054Z,37.77
2023-02-28T14:22:16.885Z,37.76
2023-02-28T14:23:16.749Z,37.72
2023-02-28T14:25:16.495Z,37.71
2023-02-28T14:26:16.370Z,37.69
2023-02-28T14:27:16.250Z,37.67
2023-02-28T14:28:16.110Z,37.65
2023-02-28T14:29:16.011Z,37.64
2023-02-28T14:30:15.845Z,37.64
2023-02-28T14:31:15.787Z,37.65
2023-02-28T14:32:15.673Z,37.62
2023-02-28T14:33:16.030Z,37.58
2023-02-28T14:34:15.351Z,37.56
2023-02-28T14:35:15.214Z,37.62
2023-02-28T14:36:15.083Z,37.65
2023-02-28T14:37:14.964Z,37.60
2023-02-28T14:38:14.829Z,37.58
2023-02-28T14:39:14.733Z,37.58
2023-02-28T14:40:14.583Z,37.55
2023-02-28T14:41:14.451Z,37.52
2023-02-28T14:42:14.335Z,37.51
2023-02-28T14:43:14.237Z,37.49
2023-02-28T14:44:14.094Z,37.49
2023-02-28T14:45:13.968Z,37.46
2023-02-28T14:46:13.907Z,37.50
2023-02-28T14:47:13.713Z,37.47
2023-02-28T14:48:13.584Z,37.42
2023-02-28T14:49:13.538Z,37.41
2023-02-28T14:50:13.328Z,37.42
2023-02-28T14:51:14.030Z,37.39
2023-02-28T15:13:10.459Z,37.13
2023-02-28T15:14:10.247Z,37.13
2023-02-28T15:15:10.132Z,37.16
2023-02-28T15:16:10.051Z,37.14
2023-02-28T15:17:09.865Z,37.15
2023-02-28T15:18:09.787Z,37.14
2023-02-28T15:19:09.594Z,37.15
2023-02-28T15:20:09.575Z,37.11
2023-02-28T15:21:09.360Z,37.07
2023-02-28T15:22:09.222Z,37.08
2023-02-28T15:23:09.100Z,37.05
2023-02-28T15:24:08.974Z,37.05
2023-02-28T15:25:08.841Z,37.05
2023-02-28T15:26:08.764Z,37.04
2023-02-28T15:27:08.625Z,37.01
2023-02-28T15:28:08.462Z,37.01
2023-02-28T15:29:08.338Z,37.01
2023-02-28T15:30:08.216Z,36.98
2023-02-28T15:31:08.107Z,36.98
2023-02-28T15:32:08.166Z,36.96
2023-02-28T15:33:07.859Z,36.94
2023-02-28T15:34:07.696Z,36.93
2023-02-28T15:35:07.551Z,36.91
2023-02-28T15:36:07.498Z,36.91
2023-02-28T15:37:07.386Z,36.90
2023-02-28T15:38:07.192Z,36.90
2023-02-28T15:39:15.912Z,36.89
2023-02-28T15:40:07.898Z,36.87
2023-02-28T15:41:06.733Z,36.85
2023-02-28T15:42:06.569Z,36.82
2023-02-28T15:43:06.404Z,36.84
2023-02-28T15:44:06.231Z,36.83
2023-02-28T15:45:06.080Z,36.83
2023-02-28T15:46:05.986Z,36.83
2023-02-28T15:47:05.811Z,36.79
2023-02-28T15:48:13.972Z,36.77
2023-02-28T15:49:06.429Z,36.77
2023-02-28T15:50:05.272Z,36.76
2023-02-28T15:51:05.163Z,36.76
2023-02-28T15:52:04.954Z,36.71
2023-02-28T15:53:04.783Z,36.70
2023-02-28T15:54:04.674Z,36.71
2023-02-28T15:55:04.449Z,36.68
2023-02-28T15:56:04.300Z,36.67
2023-02-28T15:57:04.136Z,36.68
2023-02-28T15:58:03.980Z,36.68
2023-02-28T15:59:03.819Z,36.68
2023-02-28T16:00:03.654Z,36.67
2023-02-28T16:01:03.500Z,36.65
2023-02-28T16:02:03.558Z,36.63
2023-02-28T16:03:03.312Z,36.65
2023-02-28T16:04:03.100Z,36.67
2023-02-28T16:05:02.848Z,36.64
2023-02-28T16:06:02.689Z,36.64
2023-02-28T16:07:02.605Z,36.63
2023-02-28T16:08:02.406Z,36.57
2023-02-28T16:09:02.219Z,36.59
2023-02-28T16:10:02.072Z,36.60
2023-02-28T16:11:01.899Z,36.58
2023-02-28T16:12:01.751Z,36.56
2023-02-28T16:13:01.583Z,36.56
2023-02-28T16:14:01.454Z,36.54
2023-02-28T16:15:01.317Z,36.50
2023-02-28T16:16:01.174Z,36.51
2023-02-28T16:17:01.038Z,36.48
2023-02-28T16:18:00.897Z,36.48
2023-02-28T16:19:00.761Z,36.45
2023-02-28T16:20:00.713Z,36.45
2023-02-28T16:21:00.490Z,36.47
2023-02-28T16:22:00.352Z,36.44
2023-02-28T16:23:00.263Z,36.42
2023-02-28T16:24:00.076Z,36.41
2023-02-28T16:24:59.921Z,36.42
2023-02-28T16:25:59.766Z,36.40
2023-02-28T16:26:59.635Z,36.40
2023-02-28T16:27:59.480Z,36.42
2023-02-28T16:28:59.337Z,36.51
2023-02-28T16:29:59.367Z,36.50
2023-02-28T16:30:59.068Z,36.60
2023-02-28T16:31:58.937Z,36.58
2023-02-28T16:32:58.770Z,36.55
2023-02-28T16:33:59.044Z,36.49
2023-02-28T16:34:58.511Z,36.48
2023-02-28T16:35:58.389Z,36.46
2023-02-28T16:36:58.236Z,36.44
2023-02-28T16:37:58.082Z,36.45
2023-02-28T16:38:57.935Z,36.41
2023-02-28T16:56:55.346Z,36.26
2023-02-28T16:57:55.210Z,36.23
2023-02-28T16:58:55.055Z,36.21
2023-02-28T16:59:54.892Z,36.20
2023-02-28T17:00:54.771Z,36.21
2023-02-28T17:01:54.832Z,36.21
2023-02-28T17:02:54.525Z,36.21
2023-02-28T17:03:54.324Z,36.22
2023-02-28T17:04:54.171Z,36.22
2023-02-28T17:05:54.036Z,36.19
2023-02-28T17:06:53.888Z,36.17
2023-02-28T17:07:53.729Z,36.17
2023-02-28T17:08:53.596Z,36.16
2023-02-28T17:09:53.461Z,36.17
2023-02-28T18:07:44.452Z,35.74
2023-02-28T18:08:44.312Z,35.71
2023-02-28T18:09:44.154Z,35.71
2023-02-28T18:10:43.986Z,35.69
2023-02-28T18:11:43.829Z,35.68
2023-02-28T18:12:43.702Z,35.66
2023-02-28T18:13:43.601Z,35.65
2023-02-28T18:14:43.361Z,35.64
2023-02-28T18:26:41.462Z,35.52
2023-02-28T18:27:41.308Z,35.49
2023-02-28T18:28:41.157Z,35.51
2023-02-28T18:29:41.825Z,35.51
2023-02-28T18:30:41.090Z,35.48
2023-02-28T18:31:40.745Z,35.49
2023-02-28T18:32:40.624Z,35.51
2023-02-28T18:33:40.376Z,35.51
2023-02-28T18:34:40.234Z,35.53
2023-02-28T18:35:40.134Z,35.49
2023-02-28T18:36:39.909Z,35.50
2023-02-28T18:37:39.752Z,35.46
2023-02-28T18:38:39.594Z,35.45
2023-02-28T18:39:39.430Z,35.45
2023-02-28T18:40:39.284Z,35.45
2023-02-28T18:41:39.193Z,35.43
2023-02-28T18:42:38.958Z,35.46
2023-02-28T18:43:38.804Z,35.42
2023-02-28T18:44:38.648Z,35.41
2023-02-28T18:45:38.539Z,35.39
2023-02-28T18:46:38.450Z,35.38
2023-02-28T18:47:38.220Z,35.37
2023-02-28T18:48:38.084Z,35.37
2023-02-28T18:49:37.933Z,35.34
2023-02-28T18:50:37.775Z,35.32
2023-02-28T18:51:37.628Z,35.33
2023-02-28T18:52:37.460Z,35.34
2023-02-28T18:53:37.343Z,35.34
2023-02-28T18:54:37.215Z,35.35
2023-02-28T18:55:36.999Z,35.34
2023-02-28T18:56:36.848Z,35.29
2023-02-28T18:57:36.683Z,35.32
2023-02-28T18:58:36.536Z,35.31
2023-02-28T18:59:36.387Z,35.31
2023-02-28T19:00:36.267Z,35.30
2023-02-28T19:01:36.072Z,35.32
2023-02-28T19:02:35.913Z,35.30
2023-02-28T19:03:35.803Z,35.32
2023-02-28T19:04:35.579Z,35.30
2023-02-28T19:05:35.425Z,35.30
2023-02-28T19:06:35.352Z,35.28
2023-02-28T19:07:35.111Z,35.26
2023-02-28T19:08:35.014Z,35.27
2023-02-28T19:09:34.795Z,35.28
2023-02-28T19:10:34.630Z,35.28
2023-02-28T19:11:36.286Z,35.26
2023-02-28T19:12:34.295Z,35.25
2023-02-28T19:13:34.141Z,35.25
2023-02-28T19:14:33.972Z,35.22
2023-02-28T19:15:33.815Z,35.22
2023-02-28T19:16:33.882Z,35.21
2023-02-28T19:17:33.497Z,35.21
2023-02-28T19:56:27.385Z,35.13
2023-02-28T19:57:27.245Z,35.15
2023-02-28T19:58:27.097Z,35.14
2023-02-28T19:59:38.301Z,35.12
2023-02-28T20:01:26.617Z,35.10
2023-02-28T20:17:23.940Z,35.05
2023-02-28T20:18:23.868Z,35.13
2023-02-28T20:19:23.621Z,35.10
2023-02-28T20:20:23.489Z,35.11
2023-02-28T20:21:23.333Z,35.11
2023-02-28T20:42:20.285Z,35.08
2023-02-28T20:43:20.144Z,35.08
2023-02-28T20:44:20.028Z,35.06
2023-02-28T20:46:19.877Z,35.05
2023-02-28T20:47:19.593Z,35.06
2023-02-28T20:48:19.453Z,35.07
2023-02-28T20:49:19.284Z,35.05
2023-02-28T20:50:19.174Z,35.08
2023-02-28T20:51:19.054Z,35.09
2023-02-28T20:52:18.852Z,35.09
2023-02-28T20:53:18.687Z,35.10
2023-02-28T20:54:18.527Z,35.12
2023-02-28T20:56:18.241Z,35.11
2023-02-28T20:57:18.068Z,35.11
2023-02-28T20:58:17.968Z,35.10
2023-02-28T20:59:17.753Z,35.11
2023-02-28T21:00:17.621Z,35.11
2023-02-28T21:01:17.584Z,35.11
2023-02-28T21:02:17.390Z,35.08
2023-02-28T21:03:17.246Z,35.09
2023-02-28T21:04:17.114Z,35.11
2023-02-28T21:05:16.998Z,35.11
2023-02-28T21:06:16.863Z,35.14
2023-02-28T21:07:16.721Z,35.12
2023-02-28T21:08:16.601Z,35.11
2023-02-28T21:09:16.471Z,35.11
2023-02-28T21:10:16.357Z,35.07
2023-02-28T21:11:16.254Z,35.11
2023-02-28T21:12:16.121Z,35.10
2023-02-28T21:13:15.979Z,35.12
2023-02-28T21:14:15.844Z,35.14
2023-02-28T21:15:15.716Z,35.13
2023-02-28T21:16:15.660Z,35.12
2023-02-28T21:17:15.446Z,35.13
2023-02-28T21:18:15.345Z,35.11
2023-02-28T21:19:15.162Z,35.11
2023-02-28T21:20:15.026Z,35.13
2023-02-28T21:28:14.035Z,35.13
2023-02-28T21:29:13.915Z,35.12
2023-02-28T21:30:13.766Z,35.15
2023-02-28T21:31:13.723Z,35.11
2023-02-28T21:32:13.546Z,35.13
2023-02-28T21:33:13.374Z,35.12
2023-02-28T22:23:05.662Z,35.12
2023-02-28T22:24:05.496Z,35.16
2023-02-28T22:25:05.352Z,35.14
2023-02-28T22:26:05.173Z,35.13
2023-02-28T22:27:05.011Z,35.12
2023-02-28T22:28:04.868Z,35.15
2023-02-28T22:29:04.720Z,35.15
2023-02-28T22:30:04.539Z,35.15
2023-02-28T22:31:04.407Z,35.14
2023-02-28T22:32:04.275Z,35.15
2023-02-28T22:33:04.062Z,35.17
2023-02-28T22:34:03.962Z,35.14
2023-02-28T22:35:03.779Z,35.18
2023-02-28T22:36:03.604Z,35.15
2023-02-28T22:37:03.437Z,35.14
2023-02-28T23:19:56.609Z,35.21
2023-02-28T23:20:56.628Z,35.19
2023-02-28T23:21:56.297Z,35.21
2023-02-28T23:22:56.143Z,35.18
2023-02-28T23:23:55.989Z,35.21
2023-02-28T23:24:55.872Z,35.21
2023-02-28T23:25:55.669Z,35.19
2023-02-28T23:26:55.499Z,35.19
2023-02-28T23:27:55.334Z,35.21
2023-02-28T23:28:55.184Z,35.23
2023-02-28T23:29:55.039Z,35.20
2023-02-28T23:30:54.878Z,35.19
2023-02-28T23:31:54.872Z,35.23
2023-02-28T23:32:54.564Z,35.23
2023-02-28T23:33:54.412Z,35.24
2023-02-28T23:34:54.275Z,35.24
2023-02-28T23:35:54.165Z,35.24
2023-02-28T23:36:53.938Z,35.23
2023-02-28T23:37:53.785Z,35.24
2023-02-28T23:38:53.685Z,35.25
2023-02-28T23:39:53.474Z,35.25
